Time;durP1;ratioP1;P1;durP2;ratioP2;P2;SDS_P1;SDS_P2;PMS_P1;PMS_P2;Temp;Humidity;BMP_temperature;BMP_pressure;BME280_temperature;BME280_humidity;BME280_pressure;Samples;Min_cycle;Max_cycle;Signal;HPM_P1;HPM_P2
2022/05/29 00:00:19;;;;;;;15.55;3.40;;;9.90;99.90;;;;;;4966115;28;20412;-66
2022/05/29 00:02:48;;;;;;;12.65;3.53;;;10.00;99.90;;;;;;4955821;28;20047;-66
2022/05/29 00:05:15;;;;;;;;;;;10.00;99.90;;;;;;4962417;28;20050;-66
2022/05/29 00:07:45;;;;;;;15.30;3.17;;;10.00;99.90;;;;;;4982589;28;19926;-66
2022/05/29 00:10:11;;;;;;;20.98;4.55;;;9.90;99.90;;;;;;4965305;28;20156;-67
2022/05/29 00:12:39;;;;;;;37.72;4.18;;;10.00;99.90;;;;;;4964844;28;20138;-66
2022/05/29 00:15:05;;;;;;;12.95;3.03;;;10.00;99.90;;;;;;4964230;28;20058;-67
2022/05/29 00:17:30;;;;;;;10.90;3.10;;;10.00;99.90;;;;;;4957860;28;20043;-66
2022/05/29 00:19:56;;;;;;;15.95;3.65;;;10.00;99.90;;;;;;4967771;28;20437;-66
2022/05/29 00:22:23;;;;;;;20.23;4.20;;;10.10;99.90;;;;;;4972645;28;20129;-65
2022/05/29 00:24:50;;;;;;;15.52;3.28;;;10.30;99.90;;;;;;4971990;28;20483;-65
2022/05/29 00:27:16;;;;;;;20.55;4.28;;;10.20;99.90;;;;;;4957845;28;20054;-65
2022/05/29 00:29:43;;;;;;;18.98;3.65;;;10.20;99.90;;;;;;4971478;28;20047;-66
2022/05/29 00:32:10;;;;;;;20.27;3.97;;;10.10;99.90;;;;;;4972322;28;20133;-66
2022/05/29 00:34:36;;;;;;;16.02;4.30;;;9.90;99.90;;;;;;4968425;28;20055;-66
2022/05/29 00:37:05;;;;;;;16.40;3.70;;;9.90;99.90;;;;;;4970314;28;20054;-68
2022/05/29 00:39:31;;;;;;;14.73;3.55;;;9.80;99.90;;;;;;4970137;28;20070;-66
2022/05/29 00:41:57;;;;;;;16.83;3.58;;;9.80;99.90;;;;;;4966436;28;20043;-67
2022/05/29 00:44:28;;;;;;;14.25;3.60;;;9.80;99.90;;;;;;4971168;28;20046;-66
2022/05/29 00:47:10;;;;;;;20.38;5.07;;;9.80;99.90;;;;;;4969769;28;21357;-66
2022/05/29 00:49:37;;;;;;;17.95;4.10;;;9.80;99.90;;;;;;4970651;28;20066;-66
2022/05/29 00:52:25;;;;;;;13.27;4.05;;;9.80;99.90;;;;;;4971642;28;20050;-66
2022/05/29 00:54:58;;;;;;;12.55;3.83;;;9.90;99.90;;;;;;4970582;28;20130;-66
2022/05/29 00:57:50;;;;;;;16.30;3.97;;;9.90;99.90;;;;;;4970419;28;20069;-65
2022/05/29 01:00:18;;;;;;;26.88;3.97;;;9.90;99.90;;;;;;4970028;28;20532;-66
2022/05/29 01:02:45;;;;;;;16.08;3.63;;;9.90;99.90;;;;;;4955455;28;20055;-67
2022/05/29 01:05:13;;;;;;;21.42;4.35;;;9.90;99.90;;;;;;4974211;28;20251;-66
2022/05/29 01:07:41;;;;;;;19.27;4.13;;;9.90;99.90;;;;;;4972516;28;20050;-66
2022/05/29 01:10:09;;;;;;;17.52;4.18;;;9.90;99.90;;;;;;4975114;28;20081;-66
2022/05/29 01:12:49;;;;;;;18.85;3.70;;;9.90;99.90;;;;;;4968987;28;20057;-67
2022/05/29 01:15:43;;;;;;;16.33;3.75;;;9.90;99.90;;;;;;4969206;28;20092;-66
2022/05/29 01:18:28;;;;;;;12.60;3.13;;;9.90;99.90;;;;;;4972753;28;20039;-68
2022/05/29 01:21:09;;;;;;;15.15;3.25;;;10.00;99.90;;;;;;4974554;28;20051;-67
2022/05/29 01:24:00;;;;;;;11.63;2.83;;;10.10;99.90;;;;;;4974012;28;20499;-66
2022/05/29 01:26:54;;;;;;;18.90;3.63;;;10.10;99.90;;;;;;4978546;28;20058;-67
2022/05/29 01:29:29;;;;;;;11.93;3.33;;;10.10;99.90;;;;;;4972985;28;20485;-67
2022/05/29 01:32:00;;;;;;;17.88;3.28;;;10.10;99.90;;;;;;4971593;28;20045;-67
2022/05/29 01:34:38;;;;;;;13.02;3.33;;;10.10;99.90;;;;;;4964401;28;20051;-67
2022/05/29 01:37:44;;;;;;;15.20;3.30;;;10.10;99.90;;;;;;4973574;28;20054;-66
2022/05/29 01:40:13;;;;;;;14.15;3.80;;;10.20;99.90;;;;;;4969800;28;20051;-66
2022/05/29 01:42:53;;;;;;;17.23;4.05;;;10.10;99.90;;;;;;4972022;28;20043;-67
2022/05/29 01:45:32;;;;;;;14.98;3.42;;;10.10;99.90;;;;;;4972840;28;20085;-66
2022/05/29 01:48:09;;;;;;;16.20;3.95;;;10.10;99.90;;;;;;4972090;28;20058;-67
2022/05/29 01:50:44;;;;;;;15.82;3.67;;;10.10;99.90;;;;;;4989164;28;20085;-66
2022/05/29 01:53:20;;;;;;;15.07;3.75;;;10.10;99.90;;;;;;4971712;28;20043;-67
2022/05/29 01:55:53;;;;;;;18.83;4.20;;;10.10;99.90;;;;;;4972955;28;20425;-67
2022/05/29 01:58:25;;;;;;;15.07;3.35;;;10.10;99.90;;;;;;4972403;28;20042;-67
2022/05/29 02:00:56;;;;;;;12.93;3.70;;;10.10;99.90;;;;;;4969930;28;20039;-67
2022/05/29 02:03:34;;;;;;;14.88;3.20;;;10.10;99.90;;;;;;4972324;28;20094;-67
2022/05/29 02:06:08;;;;;;;15.98;2.92;;;10.10;99.90;;;;;;4971592;28;20049;-66
2022/05/29 02:08:44;;;;;;;17.58;3.25;;;10.10;99.90;;;;;;4969191;28;20182;-67
2022/05/29 02:11:22;;;;;;;15.88;3.45;;;10.20;99.90;;;;;;4973096;28;20046;-67
2022/05/29 02:14:02;;;;;;;9.80;2.80;;;10.20;99.90;;;;;;4970098;28;20049;-68
2022/05/29 02:16:36;;;;;;;11.73;2.70;;;10.30;99.90;;;;;;4973393;28;20049;-66
2022/05/29 02:19:15;;;;;;;12.75;3.70;;;10.30;99.90;;;;;;4970696;28;20121;-66
2022/05/29 02:22:03;;;;;;;12.77;3.42;;;10.30;99.90;;;;;;4969919;28;20047;-66
2022/05/29 02:24:38;;;;;;;13.13;3.30;;;10.20;99.90;;;;;;4972389;28;20043;-66
2022/05/29 02:27:10;;;;;;;12.85;3.33;;;10.30;99.90;;;;;;4970103;28;20134;-67
2022/05/29 02:29:36;;;;;;;15.95;3.20;;;10.30;99.90;;;;;;4957461;28;20059;-67
2022/05/29 02:32:22;;;;;;;21.13;3.65;;;10.30;99.90;;;;;;4972359;28;20073;-66
2022/05/29 02:34:50;;;;;;;14.45;4.07;;;10.40;99.90;;;;;;4969997;28;20068;-67
2022/05/29 02:37:24;;;;;;;16.83;3.45;;;10.40;99.90;;;;;;4973343;28;20070;-67
2022/05/29 02:40:28;;;;;;;13.75;2.60;;;10.40;99.90;;;;;;4972745;28;20497;-66
2022/05/29 02:43:12;;;;;;;13.75;3.08;;;10.40;99.90;;;;;;4973101;28;20178;-67
2022/05/29 02:46:02;;;;;;;16.15;3.53;;;10.50;99.90;;;;;;4972530;28;20039;-67
2022/05/29 02:48:49;;;;;;;13.48;3.20;;;10.50;99.90;;;;;;4987500;28;20051;-67
2022/05/29 02:51:47;;;;;;;13.18;3.33;;;10.50;99.90;;;;;;4972869;28;20788;-66
2022/05/29 02:54:21;;;;;;;12.85;2.85;;;10.50;99.90;;;;;;4973508;28;20125;-67
2022/05/29 02:56:47;;;;;;;10.63;2.92;;;10.40;99.90;;;;;;4964500;28;20082;-67
2022/05/29 02:59:12;;;;;;;14.98;2.72;;;10.40;99.90;;;;;;4971103;28;20074;-67
2022/05/29 03:01:57;;;;;;;11.52;3.10;;;10.40;99.90;;;;;;4971519;28;20093;-66
2022/05/29 03:05:04;;;;;;;12.85;2.97;;;10.40;99.90;;;;;;4971987;28;20061;-67
2022/05/29 03:07:48;;;;;;;15.45;3.35;;;10.30;99.90;;;;;;4971480;28;20117;-66
2022/05/29 03:10:20;;;;;;;15.25;3.08;;;10.30;99.90;;;;;;4987651;28;20059;-67
2022/05/29 03:13:11;;;;;;;14.38;3.10;;;10.20;99.90;;;;;;4952461;28;20043;-66
2022/05/29 03:15:59;;;;;;;11.70;3.03;;;10.30;99.90;;;;;;4972999;28;20043;-66
2022/05/29 03:18:39;;;;;;;12.57;2.88;;;10.20;99.90;;;;;;4969465;28;20058;-67
2022/05/29 03:21:10;;;;;;;17.65;3.38;;;10.30;99.90;;;;;;4972355;28;20112;-67
2022/05/29 03:23:50;;;;;;;13.35;3.40;;;10.20;99.90;;;;;;4970979;28;20785;-65
2022/05/29 03:26:39;;;;;;;10.85;2.40;;;10.20;99.90;;;;;;4970348;28;20046;-67
2022/05/29 03:29:19;;;;;;;5.85;2.33;;;10.30;99.90;;;;;;4970839;28;20103;-66
2022/05/29 03:31:45;;;;;;;13.32;2.72;;;10.30;99.90;;;;;;4966971;28;20118;-66
2022/05/29 03:34:13;;;;;;;11.30;2.50;;;10.50;99.90;;;;;;4970682;28;20043;-66
2022/05/29 03:36:46;;;;;;;9.40;2.67;;;10.30;99.90;;;;;;4987855;28;20055;-66
2022/05/29 03:39:12;;;;;;;8.25;2.10;;;10.30;99.90;;;;;;4971339;28;20121;-65
2022/05/29 03:41:43;;;;;;;8.73;2.30;;;10.30;99.90;;;;;;4970482;28;20118;-66
2022/05/29 03:44:10;;;;;;;11.23;3.22;;;10.30;99.90;;;;;;4969227;28;20049;-67
2022/05/29 03:46:35;;;;;;;11.82;2.72;;;10.30;99.90;;;;;;4971664;28;20039;-67
2022/05/29 03:49:01;;;;;;;10.30;2.60;;;10.30;99.90;;;;;;4971732;28;20394;-66
2022/05/29 03:51:27;;;;;;;13.13;2.47;;;10.50;99.90;;;;;;4983417;28;20046;-67
2022/05/29 03:53:52;;;;;;;16.45;2.95;;;10.40;99.90;;;;;;4986831;28;20122;-67
2022/05/29 03:56:18;;;;;;;9.50;2.20;;;10.40;99.90;;;;;;4974876;28;20666;-67
2022/05/29 03:58:44;;;;;;;14.52;2.75;;;10.30;99.90;;;;;;4974567;28;20070;-66
2022/05/29 04:01:10;;;;;;;15.57;2.60;;;10.40;99.90;;;;;;4975883;28;20042;-67
2022/05/29 04:03:36;;;;;;;14.02;3.28;;;10.30;99.90;;;;;;4973057;28;20050;-66
2022/05/29 04:06:04;;;;;;;17.27;3.42;;;10.30;99.90;;;;;;4972554;28;20512;-67
2022/05/29 04:13:59;;;;;;;18.75;2.95;;;10.40;99.90;;;;;;4971251;28;20063;-65
2022/05/29 04:16:25;;;;;;;14.43;2.80;;;10.30;99.90;;;;;;4974569;28;20562;-66
2022/05/29 04:18:50;;;;;;;20.33;3.13;;;10.40;99.90;;;;;;4974235;28;20039;-68
2022/05/29 04:21:16;;;;;;;11.52;3.15;;;10.40;99.90;;;;;;4975513;28;20122;-66
2022/05/29 04:23:42;;;;;;;14.82;2.85;;;10.30;99.90;;;;;;4974284;28;20066;-66
2022/05/29 04:26:08;;;;;;;15.02;3.00;;;10.40;99.90;;;;;;4976330;28;20490;-66
2022/05/29 04:28:34;;;;;;;17.10;4.03;;;10.40;99.90;;;;;;4962707;28;20047;-66
2022/05/29 04:31:00;;;;;;;18.85;3.22;;;10.40;99.90;;;;;;4972636;28;20057;-67
2022/05/29 04:33:25;;;;;;;12.88;2.70;;;10.40;99.90;;;;;;4973908;28;20540;-67
2022/05/29 04:35:53;;;;;;;15.45;3.03;;;10.40;99.90;;;;;;4974033;28;20462;-67
2022/05/29 04:38:23;;;;;;;18.60;3.10;;;10.40;99.90;;;;;;4975295;28;20034;-67
2022/05/29 04:40:48;;;;;;;17.52;3.28;;;10.40;99.90;;;;;;4972202;28;20043;-67
2022/05/29 04:43:15;;;;;;;18.55;3.10;;;10.80;99.90;;;;;;4980596;28;20058;-68
2022/05/29 04:45:44;;;;;;;13.43;2.85;;;10.30;99.90;;;;;;4974200;28;20050;-67
2022/05/29 04:48:11;;;;;;;18.80;3.20;;;10.30;99.90;;;;;;4971820;28;20073;-66
2022/05/29 04:50:37;;;;;;;13.83;2.97;;;10.30;99.90;;;;;;4945284;28;20130;-66
2022/05/29 04:53:04;;;;;;;18.55;3.40;;;10.30;99.90;;;;;;4989620;28;20141;-66
2022/05/29 04:55:30;;;;;;;13.85;2.70;;;10.30;99.90;;;;;;4969814;28;20556;-66
2022/05/29 04:57:55;;;;;;;16.70;3.17;;;10.30;99.90;;;;;;4972750;28;20138;-66
2022/05/29 05:00:21;;;;;;;12.35;2.92;;;10.30;99.90;;;;;;4970300;28;20460;-66
2022/05/29 05:02:47;;;;;;;14.63;2.85;;;10.40;99.90;;;;;;4988567;28;20509;-66
2022/05/29 05:05:13;;;;;;;11.95;2.70;;;10.40;99.90;;;;;;4974155;28;20070;-67
2022/05/29 05:07:39;;;;;;;16.83;3.60;;;10.40;99.90;;;;;;4974149;28;20051;-66
2022/05/29 05:10:11;;;;;;;12.63;2.90;;;10.50;99.90;;;;;;4975688;28;20045;-67
2022/05/29 05:12:39;;;;;;;18.42;3.53;;;10.50;99.90;;;;;;4973886;28;20042;-67
2022/05/29 05:15:06;;;;;;;20.45;4.38;;;10.50;99.90;;;;;;4986863;28;20050;-67
2022/05/29 05:17:32;;;;;;;15.55;2.90;;;10.60;99.90;;;;;;4967312;28;20126;-67
2022/05/29 05:19:57;;;;;;;16.08;3.10;;;10.60;99.90;;;;;;4975045;28;20131;-68
2022/05/29 05:22:23;;;;;;;13.48;3.42;;;10.60;99.90;;;;;;4973765;28;20408;-67
2022/05/29 05:24:49;;;;;;;20.00;2.97;;;10.60;99.90;;;;;;4973866;28;20047;-67
2022/05/29 05:27:14;;;;;;;19.42;3.22;;;10.60;99.90;;;;;;4973482;28;20540;-65
2022/05/29 05:29:40;;;;;;;14.85;2.83;;;10.60;99.90;;;;;;4972648;28;20412;-66
2022/05/29 05:32:06;;;;;;;16.67;2.95;;;10.60;99.90;;;;;;4973709;28;20078;-66
2022/05/29 05:34:32;;;;;;;15.13;3.50;;;10.60;99.90;;;;;;4972653;28;20118;-67
2022/05/29 05:36:58;;;;;;;17.92;4.30;;;10.50;99.90;;;;;;4968594;28;20131;-68
2022/05/29 05:39:24;;;;;;;14.82;2.78;;;10.40;99.90;;;;;;4989594;28;20468;-68
2022/05/29 05:41:50;;;;;;;19.27;3.65;;;10.30;99.90;;;;;;4974362;28;20039;-67
2022/05/29 05:44:16;;;;;;;16.23;3.83;;;10.30;99.90;;;;;;4969252;28;20401;-67
2022/05/29 05:46:50;;;;;;;19.10;3.08;;;10.30;99.90;;;;;;4973617;28;20047;-67
2022/05/29 05:49:17;;;;;;;8.88;2.47;;;10.30;99.90;;;;;;4969431;28;20043;-68
2022/05/29 05:51:44;;;;;;;18.77;3.22;;;10.30;99.90;;;;;;4963370;28;20512;-67
2022/05/29 05:54:11;;;;;;;12.70;4.10;;;10.40;99.90;;;;;;4972076;28;20426;-66
2022/05/29 05:56:41;;;;;;;14.98;3.40;;;10.40;99.90;;;;;;4959987;28;20055;-68
2022/05/29 05:59:07;;;;;;;22.73;3.42;;;10.40;99.90;;;;;;4964085;28;20055;-67
2022/05/29 06:01:32;;;;;;;24.58;3.47;;;10.50;99.90;;;;;;4966011;28;20467;-67
2022/05/29 06:03:58;;;;;;;21.20;3.72;;;10.60;99.90;;;;;;4972106;28;20517;-65
2022/05/29 06:06:24;;;;;;;15.02;2.75;;;10.70;99.90;;;;;;4974172;28;20043;-67
2022/05/29 06:08:49;;;;;;;17.73;3.53;;;10.70;99.90;;;;;;4973252;28;20053;-66
2022/05/29 06:11:15;;;;;;;16.60;2.88;;;10.70;99.90;;;;;;4973146;28;20047;-66
2022/05/29 06:13:41;;;;;;;12.68;2.80;;;10.70;99.90;;;;;;4970882;28;20042;-67
2022/05/29 06:16:08;;;;;;;12.98;2.92;;;10.90;99.90;;;;;;4961715;28;20050;-66
2022/05/29 06:18:34;;;;;;;13.32;2.60;;;10.90;99.90;;;;;;4971312;28;20046;-65
2022/05/29 06:21:04;;;;;;;21.65;3.05;;;10.90;99.90;;;;;;4973708;28;20039;-65
2022/05/29 06:23:30;;;;;;;14.18;2.90;;;10.90;99.90;;;;;;4984803;28;20565;-66
2022/05/29 06:25:59;;;;;;;14.70;2.50;;;10.90;99.90;;;;;;4972394;28;20085;-66
2022/05/29 06:28:25;;;;;;;14.45;2.75;;;11.00;99.90;;;;;;4987613;28;20074;-66
2022/05/29 06:30:51;;;;;;;14.05;2.75;;;11.00;99.90;;;;;;4966129;28;20109;-66
2022/05/29 06:33:16;;;;;;;14.85;2.13;;;11.00;99.90;;;;;;4972432;28;20517;-67
2022/05/29 06:35:42;;;;;;;8.57;2.20;;;11.10;99.90;;;;;;4972666;28;20334;-66
2022/05/29 06:38:08;;;;;;;9.48;2.00;;;11.10;99.90;;;;;;4972951;28;20039;-67
2022/05/29 06:40:34;;;;;;;10.02;2.28;;;11.10;99.90;;;;;;4987139;28;20051;-66
2022/05/29 06:42:59;;;;;;;6.40;1.60;;;11.60;99.90;;;;;;4971533;28;20081;-68
2022/05/29 06:45:25;;;;;;;9.05;1.92;;;11.10;99.90;;;;;;4972222;28;20070;-67
2022/05/29 06:47:50;;;;;;;11.95;2.10;;;11.10;99.90;;;;;;4972776;28;20121;-68
2022/05/29 06:50:16;;;;;;;11.55;1.95;;;11.10;99.90;;;;;;4958765;28;20478;-66
2022/05/29 06:52:42;;;;;;;8.80;2.35;;;11.00;99.90;;;;;;4963457;28;20047;-66
2022/05/29 06:55:08;;;;;;;13.02;2.28;;;11.10;99.90;;;;;;4972556;28;20030;-66
2022/05/29 06:57:37;;;;;;;10.55;2.40;;;11.10;99.90;;;;;;4972306;28;20062;-66
2022/05/29 07:08:27;;;;;;;10.20;2.65;;;11.00;99.90;;;;;;4972406;28;20071;-67
2022/05/29 07:10:54;;;;;;;18.10;3.20;;;10.90;99.90;;;;;;4972935;28;20043;-67
2022/05/29 07:13:20;;;;;;;9.88;2.25;;;10.90;99.90;;;;;;4987111;28;20046;-66
2022/05/29 07:15:46;;;;;;;10.32;2.15;;;10.90;99.90;;;;;;4967833;28;20054;-68
2022/05/29 07:18:11;;;;;;;8.35;2.20;;;10.80;99.90;;;;;;4973709;28;20046;-67
2022/05/29 07:20:37;;;;;;;15.82;2.72;;;10.80;99.90;;;;;;4973305;28;20400;-67
2022/05/29 07:23:02;;;;;;;11.60;2.33;;;10.70;99.90;;;;;;4971866;28;20038;-67
2022/05/29 07:25:28;;;;;;;14.27;2.70;;;10.70;99.90;;;;;;4972488;28;20556;-66
2022/05/29 07:27:54;;;;;;;14.55;2.58;;;10.70;99.90;;;;;;4970377;28;20130;-67
2022/05/29 07:30:19;;;;;;;10.25;2.08;;;10.70;99.90;;;;;;4969413;28;20074;-66
2022/05/29 07:32:47;;;;;;;12.68;2.15;;;10.70;99.90;;;;;;4969635;28;20039;-65
2022/05/29 07:35:13;;;;;;;7.93;1.90;;;10.70;99.90;;;;;;4971942;28;20476;-67
2022/05/29 07:37:41;;;;;;;10.50;2.00;;;10.80;99.90;;;;;;4972314;28;20039;-67
2022/05/29 07:40:07;;;;;;;6.97;1.98;;;10.90;99.90;;;;;;4971208;28;20055;-67
2022/05/29 07:45:17;;;;;;;4.07;1.00;;;11.00;99.90;;;;;;4970676;28;20050;-68
2022/05/29 07:47:45;;;;;;;11.40;2.05;;;11.10;99.90;;;;;;4971024;28;20054;-67
2022/05/29 07:50:15;;;;;;;8.38;1.85;;;11.10;99.90;;;;;;4969850;28;20042;-65
2022/05/29 07:52:41;;;;;;;4.05;1.33;;;11.20;99.90;;;;;;4976522;28;20101;-66
2022/05/29 07:55:07;;;;;;;4.38;1.40;;;11.20;99.90;;;;;;4987582;28;20065;-67
2022/05/29 07:57:33;;;;;;;7.53;1.80;;;11.30;99.90;;;;;;4981888;28;20047;-66
2022/05/29 07:59:59;;;;;;;10.00;3.00;;;11.30;99.90;;;;;;4969075;28;20035;-66
2022/05/29 08:02:24;;;;;;;7.93;1.60;;;11.20;99.90;;;;;;4969546;28;20093;-67
2022/05/29 08:04:50;;;;;;;8.77;1.70;;;11.10;99.90;;;;;;4972338;28;20458;-66
2022/05/29 08:07:18;;;;;;;9.35;1.90;;;11.00;99.90;;;;;;4971806;28;20104;-67
2022/05/29 08:09:44;;;;;;;12.48;2.13;;;11.00;99.90;;;;;;4972636;28;20098;-67
2022/05/29 08:12:10;;;;;;;6.43;1.33;;;11.00;99.90;;;;;;4987472;28;20042;-68
2022/05/29 08:14:35;;;;;;;10.55;1.70;;;11.00;99.90;;;;;;4969916;28;20042;-66
2022/05/29 08:17:01;;;;;;;10.50;2.10;;;11.10;99.90;;;;;;4971787;28;20070;-66
2022/05/29 08:19:27;;;;;;;9.40;1.67;;;11.10;99.90;;;;;;4984202;28;20053;-67
2022/05/29 08:21:52;;;;;;;10.00;2.00;;;11.10;99.90;;;;;;4969832;28;20503;-66
2022/05/29 08:32:31;;;;;;;18.27;2.78;;;10.90;99.90;;;;;;4970962;28;20047;-68
2022/05/29 08:34:57;;;;;;;12.00;1.70;;;10.90;99.90;;;;;;4961126;28;20074;-66
2022/05/29 08:37:23;;;;;;;12.98;2.58;;;10.90;99.90;;;;;;4971638;28;20042;-66
2022/05/29 08:39:48;;;;;;;12.00;2.47;;;11.00;99.90;;;;;;4965088;28;20054;-67
2022/05/29 08:42:17;;;;;;;10.98;2.05;;;11.10;99.90;;;;;;4967025;28;20047;-66
2022/05/29 08:44:52;;;;;;;9.18;1.98;;;11.20;99.90;;;;;;4971972;28;20050;-68
2022/05/29 08:47:25;;;;;;;12.43;2.53;;;11.20;99.90;;;;;;4974806;28;20511;-66
2022/05/29 08:49:51;;;;;;;11.40;1.50;;;11.20;99.90;;;;;;4974987;28;20083;-67
2022/05/29 08:52:31;;;;;;;12.13;2.58;;;11.20;99.90;;;;;;4974312;28;20202;-66
2022/05/29 08:55:16;;;;;;;4.60;1.60;;;11.20;99.90;;;;;;4973629;28;20054;-66
2022/05/29 08:58:03;;;;;;;6.50;1.80;;;11.20;99.90;;;;;;4973615;28;20500;-67
2022/05/29 09:00:46;;;;;;;3.45;1.33;;;11.20;99.90;;;;;;4972683;28;20105;-67
2022/05/29 09:03:31;;;;;;;7.20;1.33;;;11.20;99.90;;;;;;4967663;28;20489;-68
2022/05/29 09:06:37;;;;;;;8.93;2.20;;;11.20;99.90;;;;;;4983345;28;20055;-66
2022/05/29 09:09:26;;;;;;;5.38;1.40;;;11.20;99.90;;;;;;5002695;28;20401;-66
2022/05/29 09:11:57;;;;;;;10.43;2.15;;;11.20;99.90;;;;;;4960438;28;20525;-68
2022/05/29 09:14:33;;;;;;;12.20;2.25;;;11.30;99.90;;;;;;4967550;28;20515;-67
2022/05/29 09:17:25;;;;;;;14.07;2.00;;;11.30;99.90;;;;;;4964043;28;20050;-67
2022/05/29 09:19:56;;;;;;;12.63;2.20;;;11.20;99.90;;;;;;4969803;28;20565;-67
2022/05/29 09:22:31;;;;;;;11.07;1.90;;;11.10;99.90;;;;;;4967086;28;20046;-68
2022/05/29 09:25:10;;;;;;;8.63;2.22;;;11.20;99.90;;;;;;4969427;28;20125;-67
2022/05/29 09:27:38;;;;;;;12.25;1.92;;;11.20;99.90;;;;;;4971132;28;20049;-66
2022/05/29 09:30:05;;;;;;;12.60;2.65;;;11.30;99.90;;;;;;4969727;28;20126;-68
2022/05/29 09:32:34;;;;;;;7.57;1.98;;;11.30;99.90;;;;;;4986016;28;20065;-67
2022/05/29 09:35:11;;;;;;;10.07;2.15;;;11.40;99.90;;;;;;4951307;28;20051;-69
2022/05/29 09:37:52;;;;;;;6.07;1.67;;;11.40;99.90;;;;;;4962825;28;20057;-68
2022/05/29 09:40:23;;;;;;;12.98;2.33;;;11.60;99.90;;;;;;4968313;28;20544;-67
2022/05/29 09:42:48;;;;;;;12.52;2.05;;;11.60;99.90;;;;;;4970862;28;20051;-66
2022/05/29 09:45:25;;;;;;;17.63;2.78;;;11.60;99.90;;;;;;4971255;28;20035;-66
2022/05/29 09:50:45;;;;;;;6.80;1.92;;;11.80;99.90;;;;;;4969339;28;20379;-66
2022/05/29 09:53:15;;;;;;;4.22;1.52;;;12.00;99.90;;;;;;4982841;28;20417;-67
2022/05/29 09:55:49;;;;;;;7.95;1.50;;;12.10;99.90;;;;;;4985349;28;20086;-66
2022/05/29 09:58:38;;;;;;;7.38;2.30;;;12.20;99.90;;;;;;4969152;28;20093;-67
2022/05/29 10:01:06;;;;;;;9.50;1.77;;;12.20;99.90;;;;;;4971528;28;20047;-66
2022/05/29 10:03:51;;;;;;;14.07;2.30;;;12.10;99.90;;;;;;4969690;28;20047;-66
2022/05/29 10:06:22;;;;;;;10.18;2.15;;;12.20;99.90;;;;;;4983901;28;20061;-66
2022/05/29 10:08:50;;;;;;;7.35;1.55;;;12.10;99.90;;;;;;4967919;28;20051;-66
2022/05/29 10:11:31;;;;;;;9.27;1.85;;;12.20;99.90;;;;;;4970324;28;20058;-66
2022/05/29 10:14:00;;;;;;;12.63;2.17;;;12.10;99.90;;;;;;4966756;28;20177;-68
2022/05/29 10:16:37;;;;;;;8.18;1.63;;;12.00;99.90;;;;;;4951608;28;20051;-66
2022/05/29 10:19:08;;;;;;;11.38;1.88;;;12.60;99.90;;;;;;4968788;28;20412;-66
2022/05/29 10:21:45;;;;;;;6.78;1.75;;;11.90;99.90;;;;;;4965369;28;20046;-67
2022/05/29 10:24:41;;;;;;;8.68;2.33;;;11.90;99.90;;;;;;4965924;28;20043;-67
2022/05/29 10:27:25;;;;;;;7.28;2.00;;;11.80;99.90;;;;;;4963489;28;20085;-66
2022/05/29 10:30:01;;;;;;;12.38;2.28;;;11.70;99.90;;;;;;4981049;28;20043;-66
2022/05/29 10:32:33;;;;;;;11.70;2.05;;;11.70;99.90;;;;;;4968549;28;20536;-66
2022/05/29 10:35:08;;;;;;;11.25;1.80;;;11.90;99.90;;;;;;4984362;28;20043;-67
2022/05/29 10:37:40;;;;;;;6.75;1.75;;;12.10;99.90;;;;;;4961537;28;20644;-66
2022/05/29 10:40:25;;;;;;;6.82;1.45;;;12.20;99.90;;;;;;4967298;28;20164;-66
2022/05/29 10:42:59;;;;;;;8.73;2.00;;;12.30;99.90;;;;;;4968745;28;20409;-66
2022/05/29 10:45:33;;;;;;;16.33;2.00;;;12.40;99.90;;;;;;4965844;28;20042;-67
2022/05/29 10:48:05;;;;;;;10.38;1.65;;;12.20;99.90;;;;;;4962394;28;20043;-68
2022/05/29 10:50:47;;;;;;;9.05;1.83;;;11.90;99.90;;;;;;4968185;28;20058;-67
2022/05/29 10:53:50;;;;;;;10.45;2.00;;;11.80;99.90;;;;;;4968546;28;20050;-67
2022/05/29 10:57:01;;;;;;;10.90;2.25;;;11.70;99.90;;;;;;4968201;28;20444;-68
2022/05/29 10:59:56;;;;;;;6.22;1.63;;;11.80;99.90;;;;;;4974969;28;20061;-68
2022/05/29 11:05:40;;;;;;;8.38;1.60;;;11.70;99.90;;;;;;4965043;28;20444;-67
2022/05/29 11:08:31;;;;;;;13.20;2.45;;;11.80;99.90;;;;;;4962266;28;20588;-66
2022/05/29 11:11:08;;;;;;;14.93;2.70;;;11.80;99.90;;;;;;4963985;28;20058;-67
2022/05/29 11:13:52;;;;;;;13.40;2.28;;;11.90;99.90;;;;;;4962684;28;20062;-66
2022/05/29 11:16:36;;;;;;;8.48;2.03;;;11.90;99.90;;;;;;4959551;28;20039;-66
2022/05/29 11:19:35;;;;;;;11.88;2.20;;;12.00;99.90;;;;;;4966625;28;20073;-67
2022/05/29 11:22:23;;;;;;;15.40;2.55;;;12.10;99.90;;;;;;4967693;28;20129;-67
2022/05/29 11:25:14;;;;;;;13.60;2.55;;;12.20;99.90;;;;;;4963604;28;20055;-67
2022/05/29 11:27:46;;;;;;;9.63;2.05;;;12.30;99.90;;;;;;4963435;28;20469;-67
2022/05/29 11:30:11;;;;;;;10.18;2.50;;;12.30;99.90;;;;;;4968459;28;20557;-67
2022/05/29 11:32:48;;;;;;;10.20;1.77;;;12.40;99.90;;;;;;4963433;28;20142;-66
2022/05/29 11:35:23;;;;;;;14.43;2.53;;;12.50;99.90;;;;;;4967258;28;20051;-67
2022/05/29 11:38:28;;;;;;;10.25;2.38;;;12.50;99.90;;;;;;4993638;28;20043;-67
2022/05/29 11:41:01;;;;;;;13.82;2.28;;;12.20;99.90;;;;;;4973552;28;20062;-67
2022/05/29 11:43:51;;;;;;;8.93;2.03;;;12.60;99.90;;;;;;4963373;28;20055;-67
2022/05/29 11:52:04;;;;;;;8.40;2.28;;;12.30;99.90;;;;;;4955821;28;19926;-66
2022/05/29 11:54:39;;;;;;;16.80;2.00;;;12.20;99.90;;;;;;4983958;28;20047;-67
2022/05/29 11:57:22;;;;;;;13.00;2.72;;;12.20;99.90;;;;;;4967336;28;20062;-66
2022/05/29 12:00:29;;;;;;;13.25;2.00;;;12.20;99.90;;;;;;4957139;28;20412;-66
2022/05/29 12:03:00;;;;;;;6.95;2.35;;;12.00;99.90;;;;;;4980160;28;20049;-67
2022/05/29 12:05:34;;;;;;;12.98;2.05;;;12.00;99.90;;;;;;4979560;28;20063;-68
2022/05/29 12:08:06;;;;;;;10.32;2.70;;;11.80;99.90;;;;;;4960411;28;20110;-67
2022/05/29 12:10:41;;;;;;;12.40;2.78;;;11.70;99.90;;;;;;4960336;28;20059;-67
2022/05/29 12:13:13;;;;;;;10.55;2.55;;;11.60;99.90;;;;;;4968362;28;20054;-71
2022/05/29 12:15:41;;;;;;;6.70;2.15;;;11.50;99.90;;;;;;4967796;28;20053;-68
2022/05/29 12:18:14;;;;;;;;;;;11.40;99.90;;;;;;4970065;28;20090;-71
2022/05/29 12:20:49;;;;;;;17.02;2.53;;;11.40;99.90;;;;;;4969515;28;20024;-71
2022/05/29 12:23:24;;;;;;;7.72;2.08;;;11.40;99.90;;;;;;4969046;28;20050;-70
2022/05/29 12:26:06;;;;;;;13.40;2.30;;;11.40;99.90;;;;;;4953877;28;20050;-73
2022/05/29 12:29:04;;;;;;;11.48;2.95;;;11.40;99.90;;;;;;4961359;28;20441;-72
2022/05/29 12:31:41;;;;;;;19.05;2.60;;;11.50;99.90;;;;;;4971999;28;20122;-70
2022/05/29 12:34:13;;;;;;;9.00;2.20;;;11.50;99.90;;;;;;4969501;28;20078;-72
2022/05/29 12:36:58;;;;;;;10.18;2.38;;;11.60;99.90;;;;;;4966155;28;20082;-71
2022/05/29 12:39:45;;;;;;;11.00;2.00;;;11.80;99.90;;;;;;4967298;28;20051;-70
2022/05/29 12:42:26;;;;;;;17.77;2.35;;;11.90;99.90;;;;;;4968378;28;20084;-69
2022/05/29 12:45:11;;;;;;;11.75;2.38;;;12.00;99.90;;;;;;4970612;28;20576;-71
2022/05/29 12:48:03;;;;;;;8.63;2.50;;;12.10;99.90;;;;;;4971908;28;20053;-72
2022/05/29 12:51:06;;;;;;;7.03;1.70;;;12.30;99.90;;;;;;4977621;28;20386;-70
2022/05/29 12:54:05;;;;;;;14.18;2.38;;;12.30;99.90;;;;;;4968411;28;20077;-70
2022/05/29 12:56:50;;;;;;;10.50;2.10;;;12.30;99.90;;;;;;4962843;28;20058;-72
2022/05/29 12:59:37;;;;;;;9.95;2.38;;;12.40;99.90;;;;;;4970148;28;20560;-70
2022/05/29 13:02:26;;;;;;;12.10;2.13;;;12.40;99.90;;;;;;4966715;28;20059;-69
2022/05/29 13:05:36;;;;;;;11.13;2.47;;;12.40;99.90;;;;;;4966439;28;20460;-71
2022/05/29 13:08:17;;;;;;;16.27;2.58;;;12.40;99.90;;;;;;4987926;28;20120;-70
2022/05/29 13:10:49;;;;;;;13.25;2.72;;;12.50;99.90;;;;;;4980339;28;20197;-70
2022/05/29 13:13:38;;;;;;;8.27;2.35;;;12.70;99.90;;;;;;4976806;28;20111;-69
2022/05/29 13:16:22;;;;;;;15.57;2.38;;;12.60;99.90;;;;;;4955341;28;20046;-70
2022/05/29 13:19:17;;;;;;;11.45;1.90;;;12.70;99.90;;;;;;4969963;28;20485;-71
2022/05/29 13:21:54;;;;;;;14.02;2.50;;;12.70;99.90;;;;;;4966045;28;20500;-71
2022/05/29 13:24:26;;;;;;;9.90;2.17;;;12.90;99.90;;;;;;4971317;28;20038;-70
2022/05/29 13:27:17;;;;;;;16.73;2.47;;;12.70;99.90;;;;;;4962766;28;20097;-70
2022/05/29 13:29:54;;;;;;;16.92;2.55;;;12.70;99.90;;;;;;4967211;28;20714;-71
2022/05/29 13:32:28;;;;;;;8.88;2.00;;;12.70;99.90;;;;;;4970014;28;20128;-71
2022/05/29 13:35:03;;;;;;;9.05;2.05;;;12.70;99.90;;;;;;4959772;28;20054;-69
2022/05/29 13:37:47;;;;;;;9.65;2.25;;;12.70;99.90;;;;;;4971710;28;20085;-69
2022/05/29 13:40:39;;;;;;;20.90;3.22;;;12.80;99.90;;;;;;4968929;28;20043;-70
2022/05/29 13:43:19;;;;;;;12.90;2.05;;;12.90;99.90;;;;;;4965628;28;20046;-70
2022/05/29 13:45:45;;;;;;;9.07;2.17;;;13.10;99.90;;;;;;4964007;28;20281;-69
2022/05/29 13:48:26;;;;;;;15.90;2.78;;;13.10;99.90;;;;;;4976521;28;20133;-69
2022/05/29 13:51:03;;;;;;;16.52;3.15;;;13.00;99.90;;;;;;4967658;28;20070;-70